Time;durP1;ratioP1;P1;durP2;ratioP2;P2;SDS_P1;SDS_P2;PMS_P1;PMS_P2;Temp;Humidity;BMP_temperature;BMP_pressure;BME280_temperature;BME280_humidity;BME280_pressure;Samples;Min_cycle;Max_cycle;Signal;HPM_P1;HPM_P2
2022/11/25 00:02:14;;;;;;;25.75;13.55;;;22.00;40.80;;;;;;7632883;22;83663;-60
2022/11/25 00:05:14;;;;;;;25.23;13.60;;;22.00;40.90;;;;;;7632044;22;82898;-59
2022/11/25 00:08:15;;;;;;;26.05;13.80;;;22.00;40.90;;;;;;7633379;22;83681;-59
2022/11/25 00:11:15;;;;;;;29.98;15.00;;;22.00;41.00;;;;;;7663501;22;88164;-60
2022/11/25 00:14:16;;;;;;;26.35;14.00;;;22.00;40.90;;;;;;7671139;22;83738;-67
2022/11/25 00:17:16;;;;;;;23.58;14.30;;;22.00;41.00;;;;;;7672262;22;83346;-66
2022/11/25 00:20:19;;;;;;;28.65;13.27;;;22.00;41.00;;;;;;7672696;22;82887;-67
2022/11/25 00:23:19;;;;;;;26.38;13.48;;;22.00;41.00;;;;;;7671430;22;82674;-66
2022/11/25 00:26:20;;;;;;;30.98;14.50;;;22.00;41.10;;;;;;7670912;22;82960;-66
2022/11/25 00:29:20;;;;;;;28.42;14.18;;;22.00;41.10;;;;;;7671620;22;84122;-67
2022/11/25 00:32:21;;;;;;;26.40;14.45;;;22.00;41.10;;;;;;7667956;22;83067;-58
2022/11/25 00:35:22;;;;;;;24.77;14.20;;;22.00;41.10;;;;;;7672519;22;83491;-58
2022/11/25 00:38:22;;;;;;;26.50;13.27;;;22.00;41.20;;;;;;7671940;22;83773;-59
2022/11/25 00:44:42;;;;;;;30.83;14.93;;;21.90;41.20;;;;;;7671498;22;83242;-58
2022/11/25 00:47:42;;;;;;;26.80;13.45;;;21.90;41.20;;;;;;7671177;22;82990;-59
2022/11/25 00:50:43;;;;;;;29.63;15.40;;;21.90;41.20;;;;;;7672447;22;83740;-64
2022/11/25 00:53:43;;;;;;;26.67;13.15;;;21.90;41.30;;;;;;7671349;22;83046;-66
2022/11/25 00:56:44;;;;;;;26.25;13.57;;;21.90;41.30;;;;;;7643998;22;85983;-66
2022/11/25 00:59:45;;;;;;;22.83;12.23;;;21.90;41.30;;;;;;7646478;22;85734;-66
2022/11/25 01:02:45;;;;;;;26.85;13.55;;;21.90;41.40;;;;;;7642580;22;84543;-64
2022/11/25 01:05:46;;;;;;;23.15;12.65;;;21.90;41.40;;;;;;7673414;22;84159;-66
2022/11/25 01:08:47;;;;;;;21.50;12.45;;;21.90;41.40;;;;;;7642449;22;84743;-65
2022/11/25 01:11:48;;;;;;;24.23;13.10;;;21.90;41.40;;;;;;7673181;22;83906;-65
2022/11/25 01:14:48;;;;;;;23.52;13.15;;;21.90;41.40;;;;;;7646338;22;85157;-65
2022/11/25 01:17:49;;;;;;;23.88;12.55;;;21.90;41.50;;;;;;7642651;22;85285;-66
2022/11/25 01:20:49;;;;;;;24.58;13.63;;;21.90;41.50;;;;;;7675412;22;83108;-64
2022/11/25 01:23:50;;;;;;;20.25;11.13;;;21.90;41.60;;;;;;7672404;22;83511;-65
2022/11/25 01:26:50;;;;;;;30.20;14.35;;;21.90;41.60;;;;;;7643265;22;86023;-65
2022/11/25 01:29:51;;;;;;;21.75;12.32;;;21.90;41.70;;;;;;7641683;22;84710;-65
2022/11/25 01:32:51;;;;;;;23.60;13.15;;;21.90;41.80;;;;;;7672141;22;83548;-65
2022/11/25 01:35:52;;;;;;;21.13;12.52;;;21.90;41.90;;;;;;7673365;22;83435;-65
2022/11/25 01:38:53;;;;;;;23.33;11.68;;;21.90;42.00;;;;;;7671480;22;83187;-65
2022/11/25 01:41:53;;;;;;;21.60;11.27;;;21.90;42.10;;;;;;7673414;22;83532;-65
2022/11/25 01:44:55;;;;;;;23.88;11.52;;;21.90;42.10;;;;;;7642573;22;85965;-64
2022/11/25 01:47:55;;;;;;;21.77;11.85;;;21.90;42.30;;;;;;7647774;22;84065;-65
2022/11/25 01:50:56;;;;;;;26.75;11.45;;;21.90;42.30;;;;;;7672198;22;84513;-66
2022/11/25 01:53:56;;;;;;;21.40;10.57;;;21.90;42.30;;;;;;7643911;22;84914;-65
2022/11/25 01:56:57;;;;;;;17.90;11.05;;;21.90;42.40;;;;;;7673414;22;83095;-66
2022/11/25 01:59:57;;;;;;;24.77;12.35;;;21.90;42.40;;;;;;7644165;22;86413;-68
2022/11/25 02:02:58;;;;;;;18.60;9.95;;;21.90;42.60;;;;;;7673577;22;82967;-75
2022/11/25 02:06:00;;;;;;;20.08;11.13;;;21.90;42.60;;;;;;7679036;22;83502;-73
2022/11/25 02:09:04;;;;;;;22.65;10.38;;;21.90;42.70;;;;;;7670603;22;83634;-74
2022/11/25 02:12:04;;;;;;;16.90;9.50;;;21.90;42.70;;;;;;7643885;22;85701;-72
2022/11/25 02:15:05;;;;;;;16.20;9.27;;;21.90;43.00;;;;;;7650596;22;85907;-73
2022/11/25 02:18:05;;;;;;;16.38;9.38;;;21.90;42.90;;;;;;7673931;22;80383;-74
2022/11/25 02:21:06;;;;;;;23.08;10.73;;;21.90;43.00;;;;;;7623005;22;82379;-73
2022/11/25 02:24:06;;;;;;;19.98;9.85;;;21.90;43.00;;;;;;7674707;22;82854;-72
2022/11/25 02:27:07;;;;;;;17.77;9.77;;;21.90;43.10;;;;;;7650272;22;85669;-69
2022/11/25 02:30:07;;;;;;;20.35;11.23;;;21.90;43.50;;;;;;7647762;22;83020;-71
2022/11/25 02:33:08;;;;;;;18.25;10.43;;;21.90;43.10;;;;;;7646015;22;83480;-68
2022/11/25 02:36:08;;;;;;;18.60;9.65;;;21.80;43.00;;;;;;7671870;22;82568;-68
2022/11/25 02:39:09;;;;;;;17.77;9.07;;;21.90;43.00;;;;;;7649090;22;86339;-66
2022/11/25 02:42:09;;;;;;;15.60;7.85;;;21.90;43.10;;;;;;7642311;22;83049;-64
2022/11/25 02:45:10;;;;;;;14.52;9.63;;;21.90;43.00;;;;;;7643822;22;83185;-66
2022/11/25 02:48:12;;;;;;;23.75;10.63;;;21.90;43.00;;;;;;7645949;22;82923;-66
2022/11/25 02:51:13;;;;;;;17.40;9.88;;;21.90;42.90;;;;;;7668493;22;82996;-66
2022/11/25 02:54:14;;;;;;;21.77;9.38;;;21.90;42.90;;;;;;7644811;22;86053;-63
2022/11/25 02:57:14;;;;;;;20.50;9.73;;;21.90;42.90;;;;;;7673666;22;80775;-62
2022/11/25 03:00:15;;;;;;;18.75;9.20;;;21.90;43.00;;;;;;7648800;22;83527;-59
2022/11/25 03:03:16;;;;;;;15.88;8.88;;;21.90;42.90;;;;;;7650649;22;83337;-58
2022/11/25 03:06:16;;;;;;;19.27;9.70;;;21.80;42.70;;;;;;7648194;22;82231;-58
2022/11/25 03:09:16;;;;;;;21.88;9.70;;;21.90;42.50;;;;;;7648854;22;83109;-58
2022/11/25 03:12:20;;;;;;;18.20;9.45;;;21.80;42.30;;;;;;7649184;22;83342;-58
2022/11/25 03:15:22;;;;;;;16.77;8.20;;;21.80;42.20;;;;;;7648111;22;80560;-58
2022/11/25 03:18:22;;;;;;;14.15;7.97;;;21.80;42.10;;;;;;7649227;22;82988;-66
2022/11/25 03:21:23;;;;;;;15.00;8.30;;;21.80;42.00;;;;;;7624050;22;81723;-66
2022/11/25 03:24:24;;;;;;;14.18;8.40;;;21.80;41.80;;;;;;7676026;22;80482;-64
2022/11/25 03:27:25;;;;;;;14.35;7.78;;;21.80;41.80;;;;;;7676727;22;82699;-65
2022/11/25 03:30:25;;;;;;;21.05;8.43;;;21.80;41.80;;;;;;7649532;22;82859;-62
2022/11/25 03:33:30;;;;;;;13.65;7.40;;;21.80;41.70;;;;;;7649063;22;83026;-63
2022/11/25 03:36:30;;;;;;;22.13;9.18;;;21.80;41.60;;;;;;7677294;22;80824;-59
2022/11/25 03:39:31;;;;;;;15.77;8.07;;;21.80;41.60;;;;;;7651696;22;80585;-59
2022/11/25 03:42:31;;;;;;;13.43;7.68;;;21.80;41.50;;;;;;7646813;22;83596;-60
2022/11/25 03:45:32;;;;;;;15.82;9.05;;;21.80;41.50;;;;;;7676890;22;80794;-60
2022/11/25 03:48:36;;;;;;;15.52;8.60;;;21.80;41.50;;;;;;7624957;22;83020;-59
2022/11/25 03:51:36;;;;;;;12.50;7.82;;;21.80;41.40;;;;;;7649144;22;82857;-59
2022/11/25 03:54:38;;;;;;;13.82;7.32;;;21.80;41.40;;;;;;7648717;22;83428;-59
2022/11/25 03:57:54;;;;;;;13.00;7.95;;;21.80;41.50;;;;;;7647644;22;83157;-58
2022/11/25 04:00:54;;;;;;;15.73;8.50;;;21.80;41.30;;;;;;7647470;22;83428;-59
2022/11/25 04:03:55;;;;;;;16.85;8.30;;;21.80;41.30;;;;;;7674641;22;80118;-58
2022/11/25 04:06:55;;;;;;;16.40;8.70;;;21.80;41.20;;;;;;7674766;22;81448;-59
2022/11/25 04:09:56;;;;;;;16.05;8.43;;;21.80;41.20;;;;;;7672689;22;80340;-59
2022/11/25 04:13:00;;;;;;;14.40;7.78;;;21.80;41.30;;;;;;7645839;22;82402;-59
2022/11/25 04:16:07;;;;;;;12.95;7.68;;;21.90;41.50;;;;;;7645199;22;83342;-59
2022/11/25 04:19:08;;;;;;;17.45;9.07;;;21.90;41.50;;;;;;7649159;22;82935;-59
2022/11/25 04:22:09;;;;;;;18.15;8.85;;;21.90;41.00;;;;;;7666916;22;81343;-59
2022/11/25 04:25:12;;;;;;;15.35;8.32;;;22.00;41.10;;;;;;7641945;22;81541;-59
2022/11/25 04:28:13;;;;;;;21.73;9.50;;;22.00;40.90;;;;;;7675444;22;80670;-58
2022/11/25 04:31:14;;;;;;;17.90;9.05;;;22.10;40.90;;;;;;7647732;22;83226;-64
2022/11/25 04:34:17;;;;;;;15.23;8.48;;;22.10;40.80;;;;;;7674644;22;81479;-64
2022/11/25 04:37:20;;;;;;;17.45;8.10;;;22.20;40.90;;;;;;7646679;22;82492;-65
2022/11/25 04:40:21;;;;;;;13.90;7.50;;;22.20;41.10;;;;;;7648259;22;83331;-66
2022/11/25 04:43:29;;;;;;;16.30;7.43;;;22.30;41.30;;;;;;7676162;22;80731;-67
2022/11/25 04:46:36;;;;;;;12.27;7.65;;;22.30;41.40;;;;;;7648410;22;80577;-67
2022/11/25 04:49:37;;;;;;;17.20;7.35;;;22.40;41.50;;;;;;7646421;22;83262;-56
2022/11/25 04:52:38;;;;;;;14.48;6.45;;;22.40;41.60;;;;;;7649646;22;83111;-59
2022/11/25 04:55:38;;;;;;;14.38;6.80;;;22.50;41.60;;;;;;7677954;22;80173;-58
2022/11/25 05:02:02;;;;;;;11.20;6.93;;;22.50;41.10;;;;;;7648582;22;82970;-57
2022/11/25 05:05:11;;;;;;;19.52;7.82;;;22.50;40.90;;;;;;7638087;22;82993;-61
2022/11/25 05:08:12;;;;;;;13.98;6.38;;;22.60;40.80;;;;;;7623636;22;82758;-62
2022/11/25 05:11:13;;;;;;;9.68;6.18;;;22.60;40.70;;;;;;7646337;22;82477;-66
2022/11/25 05:14:14;;;;;;;11.13;6.20;;;22.60;40.60;;;;;;7679818;22;80343;-61
2022/11/25 05:17:15;;;;;;;12.02;6.55;;;22.60;40.60;;;;;;7652386;22;83255;-63
2022/11/25 05:20:16;;;;;;;10.57;6.28;;;22.70;40.50;;;;;;7636109;22;87697;-58
2022/11/25 05:23:17;;;;;;;14.32;6.78;;;22.70;40.20;;;;;;7640851;22;80605;-68
2022/11/25 05:26:17;;;;;;;13.05;7.03;;;22.70;40.20;;;;;;7612151;22;83199;-72
2022/11/25 05:29:22;;;;;;;13.20;7.70;;;22.70;40.10;;;;;;7613923;22;83234;-74
2022/11/25 05:32:23;;;;;;;16.33;7.47;;;22.70;40.10;;;;;;7612354;22;83228;-66
2022/11/25 05:35:23;;;;;;;15.73;7.45;;;22.70;40.30;;;;;;7609622;22;83039;-67
2022/11/25 05:38:24;;;;;;;45.50;8.48;;;22.70;40.20;;;;;;7602755;22;83998;-66
2022/11/25 05:41:25;;;;;;;12.70;7.93;;;22.70;40.30;;;;;;7607282;22;80553;-67
2022/11/25 05:44:26;;;;;;;26.05;8.60;;;22.80;40.80;;;;;;7610224;22;83056;-75
2022/11/25 05:47:27;;;;;;;15.93;8.52;;;22.80;40.90;;;;;;7612903;22;83198;-60
2022/11/25 05:50:28;;;;;;;17.08;9.25;;;22.80;40.70;;;;;;7613971;22;83016;-60
2022/11/25 05:53:44;;;;;;;15.00;8.55;;;22.70;40.60;;;;;;7610652;22;83257;-62
2022/11/25 05:56:44;;;;;;;19.02;10.40;;;22.70;40.40;;;;;;7609083;22;83133;-62
2022/11/25 06:00:03;;;;;;;17.45;9.77;;;22.70;40.20;;;;;;7604166;22;83373;-68
2022/11/25 06:03:15;;;;;;;15.60;8.95;;;22.70;40.50;;;;;;7636511;22;82552;-68
2022/11/25 06:06:16;;;;;;;16.23;9.25;;;22.70;41.00;;;;;;7608356;22;83155;-67
2022/11/25 06:09:17;;;;;;;23.13;9.95;;;22.70;41.30;;;;;;7606601;22;83365;-69
2022/11/25 06:12:17;;;;;;;20.83;9.52;;;22.70;42.10;;;;;;7624937;22;81375;-69
2022/11/25 06:15:22;;;;;;;21.38;11.43;;;22.70;41.70;;;;;;7652336;22;81632;-65
2022/11/25 06:18:25;;;;;;;19.05;9.70;;;22.70;41.40;;;;;;7655450;22;84968;-62
2022/11/25 06:21:25;;;;;;;16.10;9.55;;;22.60;41.10;;;;;;7610744;22;84844;-60
2022/11/25 06:24:26;;;;;;;16.90;9.38;;;22.70;41.00;;;;;;7612968;22;83231;-60
2022/11/25 06:27:32;;;;;;;;;;;22.60;40.90;;;;;;7636377;22;83208;-59
2022/11/25 06:30:33;;;;;;;19.00;9.48;;;22.50;40.80;;;;;;7644462;22;82443;-58
2022/11/25 06:33:47;;;;;;;18.75;10.10;;;22.50;40.70;;;;;;7619439;22;80288;-57
2022/11/25 06:36:49;;;;;;;16.25;9.60;;;22.50;40.70;;;;;;7627269;22;83308;-60
2022/11/25 06:39:49;;;;;;;28.02;11.20;;;22.50;40.80;;;;;;7639699;22;81990;-60
2022/11/25 06:42:50;;;;;;;23.85;10.32;;;22.50;40.60;;;;;;7602125;22;84589;-62
2022/11/25 06:45:50;;;;;;;27.73;10.90;;;22.40;40.50;;;;;;7518001;22;84369;-60
2022/11/25 06:48:51;;;;;;;15.23;8.82;;;22.40;40.50;;;;;;7632019;22;83016;-62
2022/11/25 06:51:51;;;;;;;18.88;10.32;;;22.40;40.50;;;;;;7637226;22;82786;-62
2022/11/25 06:54:52;;;;;;;21.40;10.63;;;22.40;40.50;;;;;;7636033;22;83792;-61
2022/11/25 06:57:53;;;;;;;22.52;11.32;;;22.40;40.30;;;;;;7634017;22;84900;-67
2022/11/25 07:00:53;;;;;;;21.52;10.73;;;22.40;41.00;;;;;;7632109;22;83411;-64
2022/11/25 07:03:54;;;;;;;20.67;10.88;;;22.40;40.70;;;;;;7634262;22;83698;-63
2022/11/25 07:06:54;;;;;;;27.23;10.80;;;22.30;40.60;;;;;;7633798;22;82972;-63
2022/11/25 07:09:55;;;;;;;22.30;11.27;;;22.30;40.70;;;;;;7634641;22;83379;-63
2022/11/25 07:12:56;;;;;;;24.08;11.02;;;22.20;40.60;;;;;;7645362;22;83287;-63
2022/11/25 07:15:56;;;;;;;23.50;11.38;;;22.20;41.00;;;;;;7645075;22;83816;-58
2022/11/25 07:18:57;;;;;;;15.55;9.35;;;22.20;40.90;;;;;;7630499;22;82900;-60
2022/11/25 07:21:57;;;;;;;17.80;10.20;;;22.20;41.00;;;;;;7632043;22;82796;-59
2022/11/25 07:24:58;;;;;;;20.08;10.52;;;22.20;41.00;;;;;;7633360;22;83975;-59
2022/11/25 07:27:58;;;;;;;23.88;12.02;;;22.20;41.10;;;;;;7634162;22;83417;-59
2022/11/25 07:30:59;;;;;;;24.02;12.25;;;22.20;41.20;;;;;;7635670;22;84155;-59
2022/11/25 07:33:59;;;;;;;27.10;12.55;;;22.20;41.00;;;;;;7633431;22;82807;-64
2022/11/25 07:37:00;;;;;;;24.35;11.77;;;22.20;41.10;;;;;;7633903;22;83976;-65
2022/11/25 07:40:00;;;;;;;23.95;11.35;;;22.10;41.20;;;;;;7633815;22;83942;-63
2022/11/25 07:43:01;;;;;;;24.73;11.40;;;22.10;41.30;;;;;;7632730;22;83049;-64
2022/11/25 07:46:01;;;;;;;18.10;10.10;;;22.10;41.50;;;;;;7628343;22;85635;-63
2022/11/25 07:49:02;;;;;;;19.02;9.82;;;22.10;41.30;;;;;;7629652;22;83502;-63
2022/11/25 07:52:03;;;;;;;18.95;10.32;;;22.10;41.10;;;;;;7633924;22;81946;-63
2022/11/25 07:55:03;;;;;;;18.25;10.32;;;22.10;41.00;;;;;;7627958;22;82710;-65
2022/11/25 07:58:04;;;;;;;28.30;11.15;;;22.00;41.00;;;;;;7635438;22;84007;-64
2022/11/25 08:01:04;;;;;;;19.85;10.25;;;22.10;41.10;;;;;;7631290;22;83789;-65
2022/11/25 08:04:05;;;;;;;22.77;10.13;;;22.00;41.10;;;;;;7632066;22;82903;-64
2022/11/25 08:07:05;;;;;;;25.13;12.85;;;22.00;41.20;;;;;;7630943;22;84434;-63
2022/11/25 08:10:06;;;;;;;23.13;11.43;;;22.00;41.30;;;;;;7634476;22;83869;-60
2022/11/25 08:13:06;;;;;;;22.58;11.38;;;22.00;41.40;;;;;;7640584;22;85892;-60
2022/11/25 08:16:07;;;;;;;25.77;11.38;;;22.00;41.70;;;;;;7672358;22;83368;-59
2022/11/25 08:19:08;;;;;;;21.10;10.55;;;22.00;41.60;;;;;;7674849;22;82968;-60
2022/11/25 08:22:09;;;;;;;17.63;9.30;;;22.00;41.70;;;;;;7673253;22;83457;-61
2022/11/25 08:25:09;;;;;;;20.35;10.48;;;22.00;41.80;;;;;;7660605;22;81969;-59
2022/11/25 08:28:10;;;;;;;29.00;12.60;;;22.00;42.10;;;;;;7652421;22;83336;-66
2022/11/25 08:31:10;;;;;;;21.95;12.35;;;22.00;42.20;;;;;;7660551;22;84259;-62
2022/11/25 08:34:11;;;;;;;25.10;11.48;;;22.00;42.40;;;;;;7671205;22;83314;-62
2022/11/25 08:37:11;;;;;;;22.48;11.48;;;22.00;42.70;;;;;;7639624;22;85906;-63
2022/11/25 08:40:12;;;;;;;23.50;10.57;;;22.00;42.80;;;;;;7668252;22;83120;-63
2022/11/25 08:43:12;;;;;;;17.60;9.98;;;22.00;42.80;;;;;;7656925;22;83168;-65
2022/11/25 08:46:13;;;;;;;20.95;10.55;;;22.00;42.90;;;;;;7665473;22;83029;-59
2022/11/25 08:49:16;;;;;;;19.65;10.30;;;22.00;42.80;;;;;;7671217;22;84450;-60
2022/11/25 08:52:16;;;;;;;17.38;8.98;;;22.00;43.00;;;;;;7674239;22;83010;-59
2022/11/25 08:55:17;;;;;;;16.90;9.35;;;22.00;43.40;;;;;;7670780;22;83319;-60
2022/11/25 08:58:17;;;;;;;21.40;10.18;;;22.00;43.40;;;;;;7633995;22;81313;-60
2022/11/25 09:01:18;;;;;;;15.65;9.35;;;22.00;44.10;;;;;;7658189;22;82743;-60
2022/11/25 09:04:18;;;;;;;24.40;8.90;;;22.00;44.10;;;;;;7647976;22;82050;-61
2022/11/25 09:07:19;;;;;;;18.92;9.68;;;22.00;44.30;;;;;;7637078;22;80946;-58
2022/11/25 09:10:19;;;;;;;16.65;9.77;;;22.00;44.30;;;;;;7638586;22;80324;-59
2022/11/25 09:13:20;;;;;;;16.50;8.57;;;22.00;44.30;;;;;;7657135;22;82974;-59
2022/11/25 09:16:20;;;;;;;20.73;9.02;;;22.00;44.50;;;;;;7649900;22;81056;-59
2022/11/25 09:19:21;;;;;;;15.90;8.73;;;22.00;44.30;;;;;;7637200;22;81091;-58
2022/11/25 09:22:21;;;;;;;18.92;10.60;;;22.00;44.30;;;;;;7632339;22;80533;-59
2022/11/25 09:25:22;;;;;;;16.45;8.63;;;22.00;44.10;;;;;;7631142;22;83064;-60
2022/11/25 09:28:22;;;;;;;21.15;10.07;;;22.00;44.10;;;;;;7633360;22;82981;-60
2022/11/25 09:31:23;;;;;;;17.55;8.75;;;22.00;43.80;;;;;;7629090;22;82909;-60
2022/11/25 09:34:23;;;;;;;15.93;8.73;;;22.00;43.80;;;;;;7606130;22;84840;-60
2022/11/25 09:37:24;;;;;;;17.50;9.18;;;22.00;43.70;;;;;;7632892;22;81373;-59
2022/11/25 09:40:24;;;;;;;19.65;9.23;;;22.00;43.80;;;;;;7636837;22;81467;-60
2022/11/25 09:46:47;;;;;;;11.13;7.25;;;22.00;44.00;;;;;;7623960;22;81991;-60
2022/11/25 09:49:48;;;;;;;15.73;8.25;;;22.00;43.90;;;;;;7633771;22;80912;-60
2022/11/25 09:52:48;;;;;;;12.80;7.50;;;22.00;44.00;;;;;;7633875;22;81420;-62
2022/11/25 09:55:49;;;;;;;17.55;9.18;;;22.00;44.00;;;;;;7636858;22;80516;-60
2022/11/25 09:58:49;;;;;;;13.90;7.75;;;22.00;44.10;;;;;;7638448;22;80681;-61
2022/11/25 10:01:50;;;;;;;13.82;8.13;;;22.00;44.10;;;;;;7640718;22;80692;-59
2022/11/25 10:04:52;;;;;;;15.85;8.13;;;22.00;44.00;;;;;;7639950;22;80315;-58
2022/11/25 10:07:52;;;;;;;15.40;8.13;;;22.00;44.00;;;;;;7641110;22;80433;-59
2022/11/25 10:10:53;;;;;;;16.67;9.27;;;21.90;43.90;;;;;;7637926;22;80460;-59
2022/11/25 10:13:53;;;;;;;18.10;8.32;;;22.00;44.00;;;;;;7633342;22;80228;-59
2022/11/25 10:16:54;;;;;;;14.38;7.43;;;22.00;44.00;;;;;;7636701;22;81418;-57
2022/11/25 10:19:54;;;;;;;15.43;8.27;;;22.00;44.00;;;;;;7637850;22;81156;-58
2022/11/25 10:22:55;;;;;;;14.35;7.10;;;22.00;44.10;;;;;;7640594;22;80525;-60
2022/11/25 10:25:55;;;;;;;18.77;8.93;;;22.00;44.00;;;;;;7639610;22;84028;-59
2022/11/25 10:28:56;;;;;;;15.55;8.13;;;22.00;44.10;;;;;;7640274;22;81795;-60
2022/11/25 10:31:56;;;;;;;16.90;8.93;;;22.00;44.00;;;;;;7637932;22;81537;-59
2022/11/25 10:34:57;;;;;;;14.60;8.20;;;22.00;43.90;;;;;;7609661;22;80708;-60
2022/11/25 10:37:57;;;;;;;15.75;8.32;;;22.00;43.70;;;;;;7636659;22;81415;-59
2022/11/25 10:40:58;;;;;;;14.63;7.95;;;22.00;43.70;;;;;;7638570;22;80375;-57
2022/11/25 10:43:58;;;;;;;21.30;9.32;;;22.00;43.60;;;;;;7632290;22;80808;-59
2022/11/25 10:46:59;;;;;;;18.58;8.70;;;22.00;43.50;;;;;;7639077;22;80403;-59
2022/11/25 10:50:02;;;;;;;20.40;10.05;;;22.00;43.60;;;;;;7634395;22;79833;-59
2022/11/25 10:53:03;;;;;;;14.07;7.93;;;22.00;43.50;;;;;;7633842;22;82809;-59
2022/11/25 10:56:03;;;;;;;15.68;9.00;;;22.00;43.60;;;;;;7639975;22;83279;-58
2022/11/25 10:59:04;;;;;;;15.45;8.00;;;22.00;43.70;;;;;;7638736;22;81320;-59
2022/11/25 11:02:04;;;;;;;16.60;8.57;;;21.90;43.70;;;;;;7639054;22;81945;-58
2022/11/25 11:05:05;;;;;;;19.48;9.65;;;21.90;43.70;;;;;;7637499;22;81117;-59
2022/11/25 11:08:05;;;;;;;17.73;8.98;;;22.00;43.80;;;;;;7675449;22;81445;-60
2022/11/25 11:11:06;;;;;;;16.10;8.98;;;22.00;43.80;;;;;;7677409;22;80393;-60
2022/11/25 11:14:06;;;;;;;20.75;9.48;;;21.90;43.70;;;;;;7675392;22;81211;-60
2022/11/25 11:17:07;;;;;;;21.23;10.98;;;22.00;43.80;;;;;;7678641;22;80423;-58
2022/11/25 11:20:07;;;;;;;13.30;8.85;;;21.90;43.60;;;;;;7668393;22;83374;-58
2022/11/25 11:23:08;;;;;;;17.92;10.02;;;21.90;43.50;;;;;;7677415;22;82743;-59
2022/11/25 11:26:08;;;;;;;26.42;10.60;;;21.90;43.50;;;;;;7643540;22;84668;-58
2022/11/25 11:29:09;;;;;;;16.70;8.75;;;21.90;43.40;;;;;;7674258;22;83786;-58
2022/11/25 11:32:09;;;;;;;23.85;11.13;;;21.90;43.40;;;;;;7646477;22;84866;-58
2022/11/25 11:35:10;;;;;;;15.40;9.20;;;21.90;43.30;;;;;;7642585;22;91468;-59
2022/11/25 11:38:11;;;;;;;21.35;11.13;;;21.90;43.30;;;;;;7712601;22;82958;-58
2022/11/25 11:41:11;;;;;;;27.10;13.27;;;21.90;43.50;;;;;;7672039;22;82933;-59
2022/11/25 11:44:12;;;;;;;31.10;14.73;;;22.00;44.30;;;;;;7651257;22;83338;-59
2022/11/25 11:47:12;;;;;;;36.22;17.10;;;22.00;44.70;;;;;;7664620;22;82900;-59
2022/11/25 11:50:13;;;;;;;33.95;16.70;;;22.00;45.00;;;;;;7645504;22;84073;-58
2022/11/25 11:53:13;;;;;;;33.75;15.70;;;22.00;44.80;;;;;;7658685;22;82999;-60
2022/11/25 11:56:14;;;;;;;33.30;16.10;;;22.00;44.60;;;;;;7665239;22;83760;-58
2022/11/25 11:59:14;;;;;;;37.90;16.30;;;22.00;44.40;;;;;;7665196;22;83237;-59
2022/11/25 12:02:15;;;;;;;29.60;15.40;;;22.00;44.30;;;;;;7670235;22;84204;-59
2022/11/25 12:05:16;;;;;;;29.05;14.43;;;22.00;44.30;;;;;;7671448;22;86296;-59
2022/11/25 12:08:16;;;;;;;29.33;13.55;;;22.00;44.10;;;;;;7672833;22;83832;-61
2022/11/25 12:11:17;;;;;;;26.95;14.27;;;22.00;44.00;;;;;;7671463;22;83156;-60
2022/11/25 12:14:18;;;;;;;35.35;15.18;;;22.00;44.00;;;;;;7645654;22;83920;-60
2022/11/25 12:17:19;;;;;;;25.48;12.48;;;22.00;44.00;;;;;;7664073;22;83459;-60
2022/11/25 12:20:19;;;;;;;28.92;13.43;;;22.00;44.00;;;;;;7639146;22;85668;-59
2022/11/25 12:23:20;;;;;;;22.58;10.85;;;22.00;43.90;;;;;;7666638;22;84781;-61
2022/11/25 12:26:20;;;;;;;26.88;13.23;;;22.00;44.00;;;;;;7669836;22;87188;-61
2022/11/25 12:29:21;;;;;;;28.27;12.23;;;22.00;44.10;;;;;;7674390;22;83375;-61
2022/11/25 12:32:21;;;;;;;21.58;11.32;;;22.00;44.20;;;;;;7648923;22;83108;-59
2022/11/25 12:35:22;;;;;;;25.92;13.10;;;22.00;44.10;;;;;;7666336;22;84018;-59
2022/11/25 12:38:22;;;;;;;20.75;10.40;;;22.00;44.20;;;;;;7669657;22;84154;-59
2022/11/25 12:41:23;;;;;;;21.15;11.50;;;22.00;44.20;;;;;;7670828;22;84115;-58
2022/11/25 12:44:24;;;;;;;20.67;9.80;;;22.00;44.40;;;;;;7661417;22;83754;-59
2022/11/25 12:47:24;;;;;;;26.60;10.95;;;22.00;45.00;;;;;;7662026;22;83029;-63
2022/11/25 12:50:25;;;;;;;18.70;10.30;;;22.00;45.30;;;;;;7666740;22;83708;-64
2022/11/25 12:53:26;;;;;;;21.58;11.05;;;22.00;45.30;;;;;;7660396;22;83704;-63
2022/11/25 12:56:26;;;;;;;22.98;10.90;;;22.10;46.20;;;;;;7657143;22;83934;-65
2022/11/25 12:59:27;;;;;;;17.92;10.07;;;22.10;47.00;;;;;;7670487;22;83362;-66
2022/11/25 13:02:27;;;;;;;17.00;8.90;;;22.10;47.20;;;;;;7672645;22;83194;-62
2022/11/25 13:05:28;;;;;;;16.45;9.23;;;22.10;48.10;;;;;;7675329;22;82597;-65
2022/11/25 13:08:28;;;;;;;18.35;9.65;;;22.10;47.90;;;;;;7648962;22;81784;-64
2022/11/25 13:11:29;;;;;;;16.67;9.10;;;22.20;48.50;;;;;;7669150;22;80506;-63
2022/11/25 13:14:29;;;;;;;26.10;9.98;;;22.20;48.20;;;;;;7675130;22;80440;-66
2022/11/25 13:17:30;;;;;;;17.67;8.93;;;22.10;48.00;;;;;;7672866;22;84485;-64
2022/11/25 13:20:30;;;;;;;16.27;9.15;;;22.10;47.70;;;;;;7678524;22;82957;-66
2022/11/25 13:23:31;;;;;;;19.60;10.77;;;22.10;47.50;;;;;;7710011;22;81985;-59
2022/11/25 13:26:35;;;;;;;15.13;8.57;;;22.10;47.20;;;;;;7707998;22;83754;-58
2022/11/25 13:29:36;;;;;;;17.45;8.77;;;22.10;47.20;;;;;;7711967;22;83295;-59
2022/11/25 13:32:37;;;;;;;17.27;8.95;;;22.10;47.10;;;;;;7711568;22;83191;-57
2022/11/25 13:35:37;;;;;;;12.40;7.82;;;22.10;47.10;;;;;;7714488;22;80768;-59
2022/11/25 13:38:38;;;;;;;18.60;7.68;;;22.10;46.80;;;;;;7715114;22;80309;-58
2022/11/25 13:41:38;;;;;;;15.35;8.13;;;22.10;47.00;;;;;;7707776;22;80832;-62
2022/11/25 13:44:39;;;;;;;15.65;8.30;;;22.10;46.90;;;;;;7711653;22;80396;-60
2022/11/25 13:47:39;;;;;;;13.32;8.23;;;22.10;46.80;;;;;;7706977;22;80744;-60
2022/11/25 13:50:40;;;;;;;17.25;7.78;;;22.10;46.70;;;;;;7712140;22;80446;-62
2022/11/25 13:53:40;;;;;;;13.90;8.15;;;22.10;46.70;;;;;;7709834;22;80652;-62
2022/11/25 13:56:41;;;;;;;12.93;7.43;;;22.10;46.30;;;;;;7710876;22;80357;-62
2022/11/25 13:59:41;;;;;;;22.17;9.80;;;22.10;46.20;;;;;;7709697;22;81755;-58
2022/11/25 14:02:43;;;;;;;15.90;8.75;;;22.10;46.20;;;;;;7711101;22;81227;-58
2022/11/25 14:05:44;;;;;;;16.23;8.55;;;22.00;46.10;;;;;;7712927;22;80427;-59
2022/11/25 14:08:44;;;;;;;16.35;7.38;;;22.00;45.90;;;;;;7707408;22;80383;-60
2022/11/25 14:11:45;;;;;;;15.95;7.75;;;22.00;45.90;;;;;;7715744;22;80426;-59
2022/11/25 14:14:45;;;;;;;11.48;6.78;;;22.00;45.90;;;;;;7713633;22;81506;-58
2022/11/25 14:17:46;;;;;;;12.27;6.82;;;22.00;45.90;;;;;;7701658;22;81157;-59
2022/11/25 14:20:46;;;;;;;15.45;7.72;;;22.00;45.90;;;;;;7713822;22;80601;-59
2022/11/25 14:23:47;;;;;;;21.88;7.57;;;22.00;46.10;;;;;;7705526;22;81024;-58
2022/11/25 14:26:47;;;;;;;10.60;6.40;;;22.00;46.20;;;;;;7713837;22;81186;-59
2022/11/25 14:29:48;;;;;;;13.95;8.25;;;22.00;46.30;;;;;;7699436;22;80877;-59
2022/11/25 14:32:48;;;;;;;12.90;7.28;;;22.00;46.20;;;;;;7701066;22;82105;-53
2022/11/25 14:35:49;;;;;;;13.63;7.78;;;22.10;46.60;;;;;;7714627;22;80440;-65
2022/11/25 14:38:49;;;;;;;17.98;9.15;;;22.10;46.50;;;;;;7707603;22;81211;-66
2022/11/25 14:41:50;;;;;;;13.43;7.25;;;22.00;46.60;;;;;;7701805;22;81054;-66
2022/11/25 14:44:50;;;;;;;12.70;7.95;;;22.10;46.40;;;;;;7694276;22;81975;-64
2022/11/25 14:47:51;;;;;;;13.80;9.10;;;22.10;46.20;;;;;;7704099;22;80578;-65
2022/11/25 14:50:51;;;;;;;14.93;7.85;;;22.10;46.30;;;;;;7701459;22;80712;-66
2022/11/25 14:53:52;;;;;;;13.20;8.20;;;22.10;46.20;;;;;;7700428;22;80543;-61
2022/11/25 14:56:52;;;;;;;11.57;7.57;;;22.20;46.30;;;;;;7681340;22;81390;-64
2022/11/25 14:59:53;;;;;;;19.60;9.82;;;22.20;46.30;;;;;;7710254;22;81006;-65
2022/11/25 15:02:54;;;;;;;13.52;7.75;;;22.20;46.70;;;;;;7710713;22;80830;-67
2022/11/25 15:05:55;;;;;;;12.93;8.43;;;22.20;46.10;;;;;;7706787;22;80847;-67
2022/11/25 15:08:56;;;;;;;18.85;8.38;;;22.20;46.00;;;;;;7710050;22;80871;-66
2022/11/25 15:11:56;;;;;;;16.25;8.52;;;22.30;46.10;;;;;;7696069;22;80835;-59
2022/11/25 15:14:57;;;;;;;15.55;8.90;;;22.30;46.20;;;;;;7699183;22;82201;-62
2022/11/25 15:17:57;;;;;;;16.58;9.38;;;22.30;46.20;;;;;;7711879;22;81512;-61
2022/11/25 15:20:58;;;;;;;15.98;9.25;;;22.30;46.30;;;;;;7710331;22;80747;-58
2022/11/25 15:23:58;;;;;;;16.50;9.00;;;22.30;46.30;;;;;;7713880;22;81679;-58
2022/11/25 15:26:59;;;;;;;17.27;9.55;;;22.40;46.50;;;;;;7716193;22;80481;-60
2022/11/25 15:29:59;;;;;;;24.38;11.75;;;22.40;46.50;;;;;;7715495;22;80219;-58
2022/11/25 15:33:02;;;;;;;24.77;12.88;;;22.40;47.30;;;;;;7704789;22;83150;-58
2022/11/25 15:36:02;;;;;;;25.70;12.70;;;22.50;47.40;;;;;;7682757;22;85132;-59